createdAt,value
2019-06-20T00:01:37.375Z,19.90
2019-06-20T00:04:05.806Z,19.80
2019-06-20T00:06:34.238Z,19.80
2019-06-20T00:09:03.131Z,19.90
2019-06-20T00:11:38.826Z,19.80
2019-06-20T00:14:07.298Z,19.80
2019-06-20T00:16:35.758Z,19.90
2019-06-20T00:19:04.307Z,19.80
2019-06-20T00:21:32.744Z,19.90
2019-06-20T00:24:01.178Z,20.00
2019-06-20T00:26:29.938Z,19.90
2019-06-20T00:28:58.611Z,19.70
2019-06-20T00:31:27.312Z,19.80
2019-06-20T00:33:55.732Z,19.70
2019-06-20T00:36:24.139Z,19.80
2019-06-20T00:38:52.577Z,19.80
2019-06-20T00:41:21.021Z,19.80
2019-06-20T00:43:49.905Z,19.50
2019-06-20T00:46:18.590Z,19.40
2019-06-20T00:48:46.991Z,19.50
2019-06-20T00:51:15.427Z,19.40
2019-06-20T00:53:44.285Z,19.20
2019-06-20T00:56:12.790Z,19.30
2019-06-20T00:58:41.581Z,19.20
2019-06-20T01:01:10.265Z,19.30
2019-06-20T01:03:38.721Z,19.30
2019-06-20T01:06:07.462Z,19.20
2019-06-20T01:08:35.982Z,19.20
2019-06-20T01:11:04.412Z,19.00
2019-06-20T01:13:34.307Z,18.90
2019-06-20T01:16:03.220Z,18.90
2019-06-20T01:18:31.653Z,19.00
2019-06-20T01:21:00.607Z,18.90
2019-06-20T01:23:29.024Z,18.80
2019-06-20T01:25:57.472Z,18.90
2019-06-20T01:28:25.896Z,18.80
2019-06-20T01:30:54.341Z,18.70
2019-06-20T01:33:22.800Z,18.70
2019-06-20T01:35:51.663Z,18.70
2019-06-20T01:38:20.179Z,18.80
2019-06-20T01:40:48.633Z,18.90
2019-06-20T01:43:17.076Z,19.00
2019-06-20T01:45:45.495Z,18.90
2019-06-20T01:48:13.911Z,18.80
2019-06-20T01:50:42.602Z,18.70
2019-06-20T01:53:11.011Z,18.70
2019-06-20T01:55:39.495Z,18.80
2019-06-20T01:58:07.998Z,18.80
2019-06-20T02:00:45.710Z,18.80
2019-06-20T02:03:15.180Z,18.80
2019-06-20T02:05:43.609Z,18.80
2019-06-20T02:08:12.122Z,18.80
2019-06-20T02:10:40.605Z,18.80
2019-06-20T02:13:09.388Z,18.70
2019-06-20T02:15:37.810Z,18.80
2019-06-20T02:18:06.261Z,18.80
2019-06-20T02:20:56.082Z,18.80
2019-06-20T02:23:24.491Z,18.80
2019-06-20T02:25:52.908Z,18.70
2019-06-20T02:28:21.950Z,18.70
2019-06-20T02:30:50.475Z,18.60
2019-06-20T02:33:19.715Z,18.50
2019-06-20T02:35:48.516Z,18.50
2019-06-20T02:38:16.941Z,18.50
2019-06-20T02:40:46.154Z,18.50
2019-06-20T02:43:14.646Z,18.50
2019-06-20T02:45:43.148Z,18.40
2019-06-20T02:48:11.650Z,18.40
2019-06-20T02:50:40.215Z,18.40
2019-06-20T02:53:08.650Z,18.40
2019-06-20T02:55:37.060Z,18.30
2019-06-20T02:58:05.646Z,18.30
2019-06-20T03:00:39.926Z,18.20
2019-06-20T03:03:08.653Z,18.20
2019-06-20T03:05:37.102Z,18.20
2019-06-20T03:08:05.602Z,18.10
2019-06-20T03:10:34.037Z,18.10
2019-06-20T03:13:02.468Z,18.00
2019-06-20T03:15:31.224Z,18.00
2019-06-20T03:17:59.652Z,18.00
2019-06-20T03:20:28.086Z,17.90
2019-06-20T03:22:56.505Z,17.90
2019-06-20T03:25:25.220Z,17.90
2019-06-20T03:27:53.651Z,17.90
2019-06-20T03:30:22.595Z,18.00
2019-06-20T03:32:51.028Z,17.90
2019-06-20T03:35:19.454Z,18.00
2019-06-20T03:37:50.335Z,18.00
2019-06-20T03:40:18.333Z,18.00
2019-06-20T03:42:47.001Z,18.00
2019-06-20T03:45:15.880Z,18.00
2019-06-20T03:47:44.676Z,18.00
2019-06-20T03:50:13.647Z,18.00
2019-06-20T03:52:42.074Z,18.10
2019-06-20T03:55:10.745Z,18.10
2019-06-20T03:57:39.144Z,18.10
2019-06-20T04:00:09.041Z,18.00
2019-06-20T04:02:38.273Z,18.10
2019-06-20T04:05:07.146Z,18.10
2019-06-20T04:07:35.932Z,18.10
2019-06-20T04:10:05.410Z,18.10
2019-06-20T04:12:33.815Z,18.10
2019-06-20T04:15:17.570Z,18.10
2019-06-20T04:17:32.359Z,18.00
2019-06-20T04:20:00.781Z,18.00
2019-06-20T04:22:29.203Z,18.10
2019-06-20T04:24:57.632Z,18.10
2019-06-20T04:27:26.085Z,18.20
2019-06-20T04:29:54.501Z,18.20
2019-06-20T04:32:23.216Z,18.30
2019-06-20T04:34:51.645Z,18.30
2019-06-20T04:37:20.419Z,18.40
2019-06-20T04:39:49.120Z,18.50
2019-06-20T04:42:18.776Z,18.50
2019-06-20T04:44:47.439Z,18.50
2019-06-20T04:47:16.919Z,18.50
2019-06-20T04:49:45.411Z,18.60
2019-06-20T04:52:13.840Z,18.70
2019-06-20T04:54:42.244Z,18.80
2019-06-20T04:57:10.655Z,18.80
2019-06-20T04:59:39.086Z,18.80
2019-06-20T05:02:07.495Z,18.80
2019-06-20T05:04:35.926Z,18.70
2019-06-20T05:07:07.475Z,18.70
2019-06-20T05:09:36.286Z,18.60
2019-06-20T05:12:05.062Z,18.60
2019-06-20T05:14:33.506Z,18.60
2019-06-20T05:17:02.270Z,18.50
2019-06-20T05:19:30.717Z,18.50
2019-06-20T05:21:59.147Z,18.50
2019-06-20T05:24:27.570Z,18.50
2019-06-20T05:26:56.022Z,18.60
2019-06-20T05:29:24.467Z,18.80
2019-06-20T05:31:53.068Z,18.90
2019-06-20T05:34:21.486Z,19.00
2019-06-20T05:36:50.308Z,19.10
2019-06-20T05:39:18.711Z,19.20
2019-06-20T05:41:47.136Z,19.30
2019-06-20T05:44:15.906Z,19.30
2019-06-20T05:46:44.319Z,19.30
2019-06-20T05:49:12.805Z,19.20
2019-06-20T05:51:41.772Z,19.40
2019-06-20T05:54:10.332Z,19.40
2019-06-20T05:56:38.753Z,19.50
2019-06-20T05:59:08.037Z,19.70
2019-06-20T06:01:36.684Z,19.80
2019-06-20T06:04:05.119Z,19.90
2019-06-20T06:06:33.890Z,19.90
2019-06-20T06:09:02.427Z,19.90
2019-06-20T06:11:31.173Z,20.00
2019-06-20T06:13:59.607Z,20.10
2019-06-20T06:16:28.570Z,20.10
2019-06-20T06:18:57.073Z,20.00
2019-06-20T06:21:25.503Z,19.90
2019-06-20T06:23:54.255Z,20.00
2019-06-20T06:26:22.806Z,19.90
2019-06-20T06:28:51.554Z,20.00
2019-06-20T06:31:20.236Z,20.10
2019-06-20T06:33:48.943Z,20.10
2019-06-20T06:36:17.662Z,20.00
2019-06-20T06:38:46.108Z,20.00
2019-06-20T06:41:14.835Z,20.00
2019-06-20T06:43:43.538Z,20.10
2019-06-20T06:46:12.378Z,20.10
2019-06-20T06:48:40.872Z,20.10
2019-06-20T06:51:09.355Z,20.30
2019-06-20T06:53:37.767Z,20.40
2019-06-20T06:56:06.227Z,20.40
2019-06-20T06:58:34.745Z,20.40
2019-06-20T07:01:03.209Z,20.50
2019-06-20T07:03:31.990Z,20.50
2019-06-20T07:06:00.430Z,20.50
2019-06-20T07:08:28.859Z,20.40
2019-06-20T07:10:57.590Z,20.40
2019-06-20T07:13:26.020Z,20.50
2019-06-20T07:15:54.478Z,20.40
2019-06-20T07:18:22.924Z,20.70
2019-06-20T07:20:51.401Z,21.00
2019-06-20T07:23:19.903Z,21.10
2019-06-20T07:25:48.357Z,21.20
2019-06-20T07:28:16.759Z,21.20
2019-06-20T07:30:45.313Z,21.20
2019-06-20T07:33:13.756Z,21.00
2019-06-20T07:35:42.167Z,21.00
2019-06-20T07:38:10.923Z,21.00
2019-06-20T07:40:39.349Z,21.00
2019-06-20T07:43:07.766Z,21.10
2019-06-20T07:45:36.349Z,21.40
2019-06-20T07:48:04.838Z,21.60
2019-06-20T07:50:33.288Z,21.70
2019-06-20T07:53:02.884Z,21.70
2019-06-20T07:55:31.609Z,21.80
2019-06-20T07:58:00.094Z,21.90
2019-06-20T08:00:28.703Z,21.90
2019-06-20T08:02:57.129Z,21.90
2019-06-20T08:05:25.627Z,21.80
2019-06-20T08:07:54.047Z,21.60
2019-06-20T08:10:23.177Z,21.80
2019-06-20T08:12:51.968Z,21.90
2019-06-20T08:15:21.936Z,21.90
2019-06-20T08:17:50.355Z,21.90
2019-06-20T08:20:19.504Z,21.60
2019-06-20T08:22:48.205Z,21.20
2019-06-20T08:25:17.603Z,21.10
2019-06-20T08:27:52.377Z,21.00
2019-06-20T08:30:25.996Z,20.90
2019-06-20T08:32:57.410Z,20.90
2019-06-20T08:35:28.226Z,21.00
2019-06-20T08:37:58.953Z,21.00
2019-06-20T08:40:28.997Z,21.10
2019-06-20T08:42:58.876Z,21.40
2019-06-20T08:45:30.416Z,21.80
2019-06-20T08:48:00.099Z,22.00
2019-06-20T08:50:29.010Z,22.00
2019-06-20T08:52:58.003Z,21.90
2019-06-20T08:55:27.525Z,21.90
2019-06-20T08:57:57.601Z,22.00
2019-06-20T09:00:28.899Z,21.90
2019-06-20T09:02:58.625Z,22.00
2019-06-20T09:05:30.424Z,22.00
2019-06-20T09:08:00.397Z,22.00
2019-06-20T09:10:34.890Z,22.30
2019-06-20T09:13:03.816Z,22.30
2019-06-20T09:15:32.345Z,22.30
2019-06-20T09:18:00.801Z,22.30
2019-06-20T09:20:29.628Z,22.30
2019-06-20T09:22:58.973Z,22.50
2019-06-20T09:25:27.765Z,22.90
2019-06-20T09:27:56.552Z,23.10
2019-06-20T09:30:25.410Z,23.00
2019-06-20T09:32:53.928Z,22.80
2019-06-20T09:35:22.509Z,22.90
2019-06-20T09:37:51.926Z,22.80
2019-06-20T09:40:21.998Z,22.80
2019-06-20T09:42:51.783Z,22.50
2019-06-20T09:45:21.250Z,22.40
2019-06-20T09:47:50.979Z,22.40
2019-06-20T09:50:21.065Z,22.40
2019-06-20T09:52:51.426Z,22.60
2019-06-20T09:55:20.521Z,22.70
2019-06-20T09:57:50.296Z,22.70
2019-06-20T10:00:21.927Z,22.80
2019-06-20T10:02:52.111Z,22.90
2019-06-20T10:05:22.123Z,23.10
2019-06-20T10:07:52.224Z,23.10
2019-06-20T10:10:22.804Z,23.30
2019-06-20T10:12:51.770Z,23.50
2019-06-20T10:15:26.107Z,23.60
2019-06-20T10:17:54.667Z,23.70
2019-06-20T10:20:23.613Z,23.90
2019-06-20T10:22:53.040Z,24.00
2019-06-20T10:25:21.715Z,24.00
2019-06-20T10:27:51.295Z,24.00
2019-06-20T10:30:22.122Z,24.20
2019-06-20T10:32:51.065Z,24.30
2019-06-20T10:35:22.294Z,24.40
2019-06-20T10:37:50.858Z,24.40
2019-06-20T10:40:20.647Z,24.60
2019-06-20T10:42:50.201Z,24.60
2019-06-20T10:45:21.241Z,24.40
2019-06-20T10:47:50.961Z,24.10
2019-06-20T10:50:20.388Z,23.80
2019-06-20T10:52:50.108Z,23.60
2019-06-20T10:55:19.294Z,23.70
2019-06-20T10:57:49.539Z,24.20
2019-06-20T11:00:30.321Z,24.50
2019-06-20T11:02:49.168Z,24.50
2019-06-20T11:05:18.117Z,24.30
2019-06-20T11:07:47.594Z,24.00
2019-06-20T11:10:17.050Z,23.70
2019-06-20T11:12:50.241Z,23.60
2019-06-20T11:15:17.657Z,23.50
2019-06-20T11:17:46.334Z,23.50
2019-06-20T11:20:15.561Z,23.50
2019-06-20T11:22:45.284Z,23.60
2019-06-20T11:25:18.960Z,23.90
2019-06-20T11:27:47.308Z,24.30
2019-06-20T11:30:21.952Z,24.70
2019-06-20T11:32:50.377Z,25.10
2019-06-20T11:35:18.801Z,24.90
2019-06-20T11:37:47.395Z,24.80
2019-06-20T11:40:15.983Z,25.00
2019-06-20T11:42:44.665Z,25.20
2019-06-20T11:45:13.640Z,25.50
2019-06-20T11:47:42.552Z,25.70
2019-06-20T11:50:12.053Z,26.00
2019-06-20T11:52:43.990Z,26.70
2019-06-20T11:55:12.958Z,27.60
2019-06-20T11:57:41.381Z,28.30
2019-06-20T12:00:10.951Z,29.00
2019-06-20T12:02:40.549Z,29.40
2019-06-20T12:05:10.440Z,28.80
2019-06-20T12:07:40.132Z,28.30
2019-06-20T12:10:09.863Z,27.70
2019-06-20T12:12:39.676Z,27.00
2019-06-20T12:15:09.354Z,26.40
2019-06-20T12:17:38.169Z,26.10
2019-06-20T12:20:08.761Z,25.60
2019-06-20T12:22:39.401Z,25.50
2019-06-20T12:25:10.138Z,25.10
2019-06-20T12:27:38.957Z,24.90
2019-06-20T12:30:15.207Z,25.00
2019-06-20T12:32:44.728Z,25.10
2019-06-20T12:35:14.080Z,25.20
2019-06-20T12:37:42.922Z,25.40
2019-06-20T12:40:12.425Z,26.20
2019-06-20T12:42:42.744Z,27.30
2019-06-20T12:45:11.715Z,28.20
2019-06-20T12:47:40.586Z,28.00
2019-06-20T12:50:11.173Z,28.00
2019-06-20T12:52:40.846Z,27.60
2019-06-20T12:55:11.049Z,27.60
2019-06-20T12:57:40.398Z,27.10
2019-06-20T13:00:11.379Z,26.70
2019-06-20T13:02:40.453Z,26.50
2019-06-20T13:05:10.593Z,27.40
2019-06-20T13:07:40.491Z,28.00
2019-06-20T13:10:10.150Z,28.30
2019-06-20T13:12:40.659Z,28.50
2019-06-20T13:15:09.268Z,27.90
2019-06-20T13:17:39.305Z,28.10
2019-06-20T13:20:08.710Z,28.50
2019-06-20T13:22:37.853Z,28.10
2019-06-20T13:25:08.169Z,27.90
2019-06-20T13:27:39.016Z,27.20
2019-06-20T13:30:11.054Z,26.80
2019-06-20T13:32:40.126Z,26.50
2019-06-20T13:35:09.886Z,26.40
2019-06-20T13:37:39.869Z,26.80
2019-06-20T13:40:10.895Z,26.90
2019-06-20T13:42:41.976Z,26.80
2019-06-20T13:45:21.336Z,26.90
2019-06-20T13:47:50.219Z,26.80
2019-06-20T13:50:20.989Z,26.80
2019-06-20T13:52:51.328Z,26.70
2019-06-20T13:55:20.150Z,26.40
2019-06-20T13:57:49.177Z,26.30
2019-06-20T14:00:20.252Z,25.80
2019-06-20T14:02:49.041Z,25.60
2019-06-20T14:05:18.112Z,25.10
2019-06-20T14:07:49.442Z,24.70
2019-06-20T14:10:18.349Z,24.70
2019-06-20T14:12:48.819Z,24.70
2019-06-20T14:15:19.380Z,24.40
2019-06-20T14:17:49.762Z,24.40
2019-06-20T14:20:19.408Z,24.60
2019-06-20T14:22:49.439Z,24.80
2019-06-20T14:25:19.953Z,24.40
2019-06-20T14:27:49.185Z,24.10
2019-06-20T14:30:19.566Z,23.70
2019-06-20T14:32:49.409Z,23.50
2019-06-20T14:35:18.822Z,23.50
2019-06-20T14:37:49.214Z,23.50
2019-06-20T14:40:18.710Z,23.70
2019-06-20T14:42:47.962Z,23.80
2019-06-20T14:45:17.447Z,24.00
2019-06-20T14:47:45.989Z,24.10
2019-06-20T14:50:14.876Z,24.10
2019-06-20T14:52:44.587Z,24.30
2019-06-20T14:55:13.941Z,24.40
2019-06-20T14:57:44.580Z,24.50
2019-06-20T15:00:14.975Z,24.70
2019-06-20T15:02:43.756Z,24.70
2019-06-20T15:05:18.493Z,24.60
2019-06-20T15:07:47.804Z,24.60
2019-06-20T15:10:17.491Z,24.60
2019-06-20T15:12:47.861Z,24.70
2019-06-20T15:15:16.347Z,24.60
2019-06-20T15:17:46.686Z,24.60
2019-06-20T15:20:15.917Z,24.60
2019-06-20T15:22:46.814Z,24.70
2019-06-20T15:25:15.010Z,24.70
2019-06-20T15:27:43.832Z,24.70
2019-06-20T15:30:12.902Z,24.60
2019-06-20T15:32:55.729Z,24.40
2019-06-20T15:35:11.890Z,24.20
2019-06-20T15:37:40.288Z,24.10
2019-06-20T15:40:09.276Z,24.10
2019-06-20T15:42:38.090Z,23.90
2019-06-20T15:45:08.412Z,23.80
2019-06-20T15:48:01.602Z,23.60
2019-06-20T15:50:30.031Z,23.60
2019-06-20T15:52:58.797Z,23.50
2019-06-20T15:55:27.250Z,23.40
2019-06-20T15:57:55.833Z,23.40
2019-06-20T16:00:24.664Z,23.40
2019-06-20T16:03:05.888Z,23.40
2019-06-20T16:05:23.686Z,23.20
2019-06-20T16:07:52.169Z,23.40
2019-06-20T16:10:20.835Z,23.30
2019-06-20T16:12:49.365Z,23.30
2019-06-20T16:15:23.292Z,23.20
2019-06-20T16:17:52.079Z,23.20
2019-06-20T16:20:20.832Z,23.30
2019-06-20T16:22:49.325Z,23.20
2019-06-20T16:25:17.756Z,23.20
2019-06-20T16:27:46.254Z,23.30
2019-06-20T16:30:15.418Z,23.10
2019-06-20T16:32:43.892Z,23.00
2019-06-20T16:35:14.581Z,22.80
2019-06-20T16:37:43.028Z,22.90
2019-06-20T16:40:12.178Z,22.80
2019-06-20T16:42:40.619Z,22.70
2019-06-20T16:45:10.321Z,22.80
2019-06-20T16:47:39.689Z,22.70
2019-06-20T16:50:08.443Z,22.70
2019-06-20T16:52:37.177Z,22.70
2019-06-20T16:55:06.801Z,22.70
2019-06-20T16:57:35.504Z,22.70
2019-06-20T17:00:07.088Z,22.60
2019-06-20T17:02:35.500Z,22.40
2019-06-20T17:05:06.077Z,22.40
2019-06-20T17:07:34.648Z,22.30
2019-06-20T17:10:04.454Z,22.30
2019-06-20T17:12:32.877Z,22.20
2019-06-20T17:15:01.613Z,22.10
2019-06-20T17:17:30.078Z,22.00
2019-06-20T17:19:58.523Z,22.00
2019-06-20T17:22:27.006Z,22.00
2019-06-20T17:24:55.463Z,22.00
2019-06-20T17:27:23.936Z,22.00
2019-06-20T17:29:52.377Z,22.00
2019-06-20T17:32:20.794Z,22.10
2019-06-20T17:34:49.276Z,22.30
2019-06-20T17:37:17.726Z,22.40
2019-06-20T17:39:46.192Z,22.30
2019-06-20T17:42:14.934Z,22.30
2019-06-20T17:44:46.304Z,22.20
2019-06-20T17:47:14.990Z,22.20
2019-06-20T17:49:43.441Z,22.10
2019-06-20T17:52:11.852Z,22.10
2019-06-20T17:54:40.581Z,22.10
2019-06-20T17:57:09.286Z,22.10
2019-06-20T17:59:37.982Z,22.00
2019-06-20T18:02:06.494Z,22.00
2019-06-20T18:04:34.992Z,22.00
2019-06-20T18:07:03.620Z,22.00
2019-06-20T18:09:32.136Z,21.90
2019-06-20T18:12:00.879Z,21.90
2019-06-20T18:14:29.369Z,21.90
2019-06-20T18:16:57.952Z,22.00
2019-06-20T18:19:26.465Z,22.00
2019-06-20T18:21:54.915Z,21.90
2019-06-20T18:24:23.622Z,21.80
2019-06-20T18:26:52.343Z,21.80
2019-06-20T18:29:20.752Z,21.80
2019-06-20T18:31:49.215Z,21.80
2019-06-20T18:34:29.551Z,21.50
2019-06-20T18:36:47.820Z,21.40
2019-06-20T18:39:16.256Z,21.40
2019-06-20T18:41:47.438Z,21.30
2019-06-20T18:44:14.827Z,21.20
2019-06-20T18:46:43.382Z,21.10
2019-06-20T18:49:11.883Z,21.10
2019-06-20T18:51:40.361Z,21.10
2019-06-20T18:54:08.799Z,20.90
2019-06-20T18:56:37.227Z,20.90
2019-06-20T18:59:05.823Z,20.90
2019-06-20T19:01:34.526Z,20.90
2019-06-20T19:04:02.931Z,21.00
2019-06-20T19:06:36.039Z,21.00
2019-06-20T19:09:01.856Z,21.00
2019-06-20T19:11:30.305Z,21.00
2019-06-20T19:13:58.771Z,20.90
2019-06-20T19:16:27.258Z,20.90
2019-06-20T19:18:55.815Z,20.90
2019-06-20T19:21:24.243Z,20.80
2019-06-20T19:23:55.299Z,20.80
2019-06-20T19:26:23.547Z,20.90
2019-06-20T19:28:51.999Z,20.90
2019-06-20T19:31:21.453Z,21.00
2019-06-20T19:33:52.047Z,21.00
2019-06-20T19:36:20.416Z,21.10
2019-06-20T19:38:49.840Z,21.10
2019-06-20T19:41:18.722Z,21.00
2019-06-20T19:43:47.130Z,20.90
2019-06-20T19:46:16.016Z,20.90
2019-06-20T19:48:44.540Z,20.90
2019-06-20T19:51:13.108Z,20.80
2019-06-20T19:53:41.538Z,20.70
2019-06-20T19:56:09.988Z,20.70
2019-06-20T19:58:38.468Z,20.70
2019-06-20T20:01:06.897Z,20.60
2019-06-20T20:03:35.509Z,20.50
2019-06-20T20:06:04.473Z,20.40
2019-06-20T20:08:33.039Z,20.50
2019-06-20T20:11:01.466Z,20.40
2019-06-20T20:13:29.931Z,20.30
2019-06-20T20:15:58.494Z,20.20
2019-06-20T20:18:26.905Z,20.10
2019-06-20T20:20:55.338Z,20.20
2019-06-20T20:23:23.750Z,20.10
2019-06-20T20:29:21.257Z,20.30
2019-06-20T20:31:49.722Z,20.20
2019-06-20T20:34:18.141Z,20.10
2019-06-20T20:36:46.705Z,20.20
2019-06-20T20:39:17.021Z,20.20
2019-06-20T20:41:45.528Z,20.20
2019-06-20T20:44:14.245Z,20.20
2019-06-20T20:46:42.640Z,20.20
2019-06-20T20:49:11.106Z,20.00
2019-06-20T20:51:39.718Z,20.10
2019-06-20T20:54:08.418Z,20.20
2019-06-20T20:56:36.833Z,20.20
2019-06-20T20:59:05.266Z,20.20
2019-06-20T21:01:35.610Z,20.30
2019-06-20T21:04:04.447Z,20.30
2019-06-20T21:06:32.869Z,20.20
2019-06-20T21:09:01.642Z,20.10
2019-06-20T21:11:30.442Z,20.00
2019-06-20T21:13:58.862Z,19.80
2019-06-20T21:16:27.322Z,19.80
2019-06-20T21:18:56.144Z,19.70
2019-06-20T21:21:24.590Z,19.80
2019-06-20T21:23:53.125Z,19.90
2019-06-20T21:26:21.543Z,19.80
2019-06-20T21:28:49.984Z,19.70
2019-06-20T21:31:18.468Z,19.60
2019-06-20T21:33:47.023Z,19.50
2019-06-20T21:36:15.474Z,19.40
2019-06-20T21:38:43.897Z,19.50
2019-06-20T21:41:12.624Z,19.50
2019-06-20T21:43:41.356Z,19.60
2019-06-20T21:46:09.762Z,19.60
2019-06-20T21:48:38.202Z,19.60
2019-06-20T21:51:07.021Z,19.70
2019-06-20T21:53:35.452Z,19.80
2019-06-20T21:56:04.337Z,19.80
2019-06-20T21:58:32.799Z,19.80
2019-06-20T22:01:02.093Z,19.70
2019-06-20T22:03:30.973Z,19.70
2019-06-20T22:05:59.400Z,19.70
2019-06-20T22:08:28.159Z,19.60
2019-06-20T22:10:56.599Z,19.60
2019-06-20T22:13:25.007Z,19.50
2019-06-20T22:15:53.746Z,19.50
2019-06-20T22:18:22.180Z,19.40
2019-06-20T22:24:18.745Z,19.10
2019-06-20T22:26:47.220Z,19.10
2019-06-20T22:29:16.057Z,19.00
2019-06-20T22:31:44.505Z,19.10
2019-06-20T22:34:13.303Z,19.00
2019-06-20T22:36:41.712Z,19.10
2019-06-20T22:39:10.217Z,19.00
2019-06-20T22:41:38.711Z,18.90
2019-06-20T22:44:07.523Z,18.80
2019-06-20T22:46:36.227Z,18.80
2019-06-20T22:49:04.724Z,18.80
2019-06-20T22:51:33.176Z,18.80
2019-06-20T22:54:01.801Z,18.60
2019-06-20T22:56:30.398Z,18.70
2019-06-20T22:58:58.827Z,18.60
2019-06-20T23:01:27.651Z,18.60
2019-06-20T23:03:56.108Z,18.50
2019-06-20T23:09:41.346Z,18.50
2019-06-20T23:12:09.824Z,18.50
2019-06-20T23:14:38.573Z,18.50
2019-06-20T23:17:07.079Z,18.60
2019-06-20T23:19:35.487Z,18.70
2019-06-20T23:22:04.001Z,18.70
2019-06-20T23:24:32.428Z,18.60
2019-06-20T23:27:00.921Z,18.50
2019-06-20T23:29:29.620Z,18.50
2019-06-20T23:31:58.055Z,18.40
2019-06-20T23:34:26.464Z,18.40
2019-06-20T23:36:54.901Z,18.30
2019-06-20T23:39:23.322Z,18.50
2019-06-20T23:41:52.108Z,18.40
2019-06-20T23:44:20.536Z,18.40
2019-06-20T23:46:48.963Z,18.30
2019-06-20T23:49:17.422Z,18.30
2019-06-20T23:51:50.348Z,18.30
2019-06-20T23:54:18.759Z,18.30
2019-06-20T23:56:47.190Z,18.20
2019-06-20T23:59:15.683Z,18.20
